createdAt,value
2023-05-22T00:00:10.822Z,18.50
2023-05-22T00:02:43.307Z,18.50
2023-05-22T00:05:14.778Z,17.00
2023-05-22T00:07:46.292Z,15.70
2023-05-22T00:10:16.538Z,18.00
2023-05-22T00:12:46.666Z,17.30
2023-05-22T00:15:19.453Z,17.00
2023-05-22T00:17:50.213Z,15.40
2023-05-22T00:20:20.510Z,17.40
2023-05-22T00:22:51.738Z,15.20
2023-05-22T00:25:22.920Z,16.70
2023-05-22T00:30:26.034Z,16.60
2023-05-22T00:32:56.686Z,16.60
2023-05-22T00:35:26.998Z,17.40
2023-05-22T00:37:57.174Z,17.30
2023-05-22T00:43:00.526Z,17.20
2023-05-22T00:50:34.173Z,17.40
2023-05-22T00:53:04.995Z,16.70
2023-05-22T00:55:35.317Z,16.70
2023-05-22T00:58:07.965Z,16.30
2023-05-22T01:00:42.402Z,16.50
2023-05-22T01:03:13.501Z,17.20
2023-05-22T01:05:45.406Z,16.40
2023-05-22T01:08:15.591Z,15.70
2023-05-22T01:10:45.881Z,18.10
2023-05-22T01:13:28.995Z,16.50
2023-05-22T01:16:09.241Z,17.20
2023-05-22T01:18:46.975Z,16.50
2023-05-22T01:21:23.042Z,17.30
2023-05-22T01:24:28.764Z,15.70
2023-05-22T01:27:35.448Z,18.20
2023-05-22T01:30:30.252Z,16.50
2023-05-22T01:35:36.493Z,16.10
2023-05-22T01:38:07.172Z,16.40
2023-05-22T01:40:38.736Z,17.30
2023-05-22T01:43:09.275Z,15.40
2023-05-22T01:48:12.741Z,18.20
2023-05-22T01:50:45.485Z,16.50
2023-05-22T01:53:22.895Z,16.50
2023-05-22T01:56:01.146Z,16.40
2023-05-22T01:58:41.655Z,17.00
2023-05-22T02:03:45.849Z,16.30
2023-05-22T02:06:17.835Z,17.10
2023-05-22T02:11:20.293Z,15.50
2023-05-22T02:13:51.149Z,16.70
2023-05-22T02:19:03.353Z,16.20
2023-05-22T02:24:04.466Z,15.90
2023-05-22T02:26:34.601Z,17.60
2023-05-22T02:29:04.880Z,15.50
2023-05-22T02:31:35.478Z,16.30
2023-05-22T02:34:08.331Z,17.00
2023-05-22T02:39:09.151Z,17.00
2023-05-22T02:41:39.275Z,15.20
2023-05-22T02:44:09.710Z,15.60
2023-05-22T02:46:39.885Z,16.40
2023-05-22T02:49:12.697Z,15.90
2023-05-22T02:51:47.870Z,14.40
2023-05-22T02:56:49.222Z,14.90
2023-05-22T02:59:19.472Z,16.60
2023-05-22T03:01:49.610Z,16.90
2023-05-22T03:04:22.920Z,14.60
2023-05-22T03:11:54.077Z,15.60
2023-05-22T03:19:28.714Z,16.90
2023-05-22T03:21:58.847Z,15.50
2023-05-22T03:24:29.383Z,16.80
2023-05-22T03:32:00.800Z,17.20
2023-05-22T03:34:33.665Z,15.10
2023-05-22T03:37:03.811Z,17.20
2023-05-22T03:39:33.989Z,16.60
2023-05-22T03:42:04.338Z,15.30
2023-05-22T03:44:34.494Z,15.20
2023-05-22T03:49:37.650Z,17.10
2023-05-22T03:52:08.182Z,16.30
2023-05-22T03:54:38.378Z,17.00
2023-05-22T03:57:09.170Z,15.70
2023-05-22T03:59:39.387Z,16.00
2023-05-22T04:02:13.237Z,15.80
2023-05-22T04:04:46.823Z,16.40
2023-05-22T04:09:48.958Z,15.90
2023-05-22T04:12:19.107Z,16.30
2023-05-22T04:14:49.628Z,15.80
2023-05-22T04:17:19.786Z,17.00
2023-05-22T04:19:52.712Z,14.80
2023-05-22T04:22:22.944Z,15.60
2023-05-22T04:24:53.110Z,18.20
2023-05-22T04:32:25.312Z,18.60
2023-05-22T04:34:58.658Z,17.40
2023-05-22T04:37:28.984Z,17.70
2023-05-22T04:42:37.565Z,17.70
2023-05-22T04:45:08.655Z,17.80
2023-05-22T04:47:41.790Z,19.40
2023-05-22T04:50:15.027Z,18.30
2023-05-22T04:52:45.120Z,17.60
2023-05-22T04:55:15.286Z,17.30
2023-05-22T04:57:47.591Z,15.30
2023-05-22T05:00:18.808Z,16.50
2023-05-22T05:02:49.008Z,16.20
2023-05-22T05:05:22.085Z,16.70
2023-05-22T05:07:53.458Z,16.50
2023-05-22T05:10:23.744Z,17.00
2023-05-22T05:12:53.892Z,14.90
2023-05-22T05:15:24.114Z,17.40
2023-05-22T05:17:54.336Z,17.10
2023-05-22T05:20:27.734Z,15.90
2023-05-22T05:22:57.930Z,15.00
2023-05-22T05:25:28.108Z,16.40
2023-05-22T05:35:33.509Z,15.10
2023-05-22T05:38:04.138Z,15.20
2023-05-22T05:43:08.950Z,17.40
2023-05-22T05:45:39.486Z,16.70
2023-05-22T05:48:10.394Z,17.10
2023-05-22T05:50:42.916Z,16.30
2023-05-22T05:53:13.041Z,16.70
2023-05-22T05:55:43.189Z,15.40
2023-05-22T05:58:13.353Z,17.20
2023-05-22T06:03:14.747Z,18.50
2023-05-22T06:05:48.171Z,16.50
2023-05-22T06:08:20.035Z,16.10
2023-05-22T06:10:50.292Z,17.10
2023-05-22T06:13:20.442Z,14.90
2023-05-22T06:15:50.680Z,15.70
2023-05-22T06:18:22.186Z,17.00
2023-05-22T06:20:55.011Z,15.00
2023-05-22T06:23:25.126Z,16.00
2023-05-22T06:25:55.731Z,15.70
2023-05-22T06:28:26.321Z,16.50
2023-05-22T06:30:57.400Z,18.10
2023-05-22T06:36:00.706Z,16.00
2023-05-22T06:38:31.601Z,16.70
2023-05-22T06:41:01.679Z,16.60
2023-05-22T06:43:31.795Z,17.90
2023-05-22T06:46:01.984Z,16.20
2023-05-22T06:48:36.123Z,18.40
2023-05-22T06:51:11.813Z,16.80
2023-05-22T06:53:42.026Z,15.90
2023-05-22T06:58:42.957Z,18.20
2023-05-22T07:01:13.399Z,18.30
2023-05-22T07:03:43.600Z,18.00
2023-05-22T07:13:47.912Z,17.40
2023-05-22T07:16:18.374Z,17.30
2023-05-22T07:18:48.915Z,18.00
2023-05-22T07:21:24.133Z,18.30
2023-05-22T07:23:54.845Z,18.60
2023-05-22T07:33:59.066Z,17.40
2023-05-22T07:36:32.107Z,17.70
2023-05-22T07:39:02.249Z,17.10
2023-05-22T07:46:35.686Z,17.20
2023-05-22T07:49:05.986Z,15.40
2023-05-22T07:51:38.802Z,17.10
2023-05-22T09:04:53.585Z,17.50
2023-05-22T09:07:28.200Z,18.20
2023-05-22T09:09:58.903Z,17.60
2023-05-22T09:15:06.882Z,18.50
2023-05-22T09:25:21.035Z,18.30
2023-05-22T09:30:22.258Z,18.90
2023-05-22T09:40:26.962Z,18.20
2023-05-22T09:42:57.136Z,18.60
2023-05-22T09:45:27.442Z,19.10
2023-05-22T09:47:58.210Z,17.50
2023-05-22T09:50:28.085Z,18.70
2023-05-22T09:53:04.596Z,18.90
2023-05-22T09:55:35.351Z,18.70
2023-05-22T09:58:06.203Z,18.80
2023-05-22T10:00:39.143Z,19.50
2023-05-22T10:03:12.893Z,19.20
2023-05-22T10:08:20.922Z,19.60
2023-05-22T10:10:54.305Z,19.40
2023-05-22T10:13:24.828Z,19.50
2023-05-22T10:15:55.203Z,19.50
2023-05-22T10:18:26.245Z,20.40
2023-05-22T10:20:57.169Z,19.30
2023-05-22T10:23:31.543Z,19.40
2023-05-22T10:26:02.028Z,19.50
2023-05-22T10:28:39.716Z,18.90
2023-05-22T10:31:17.755Z,19.60
2023-05-22T10:33:54.397Z,19.80
2023-05-22T10:36:35.759Z,19.80
2023-05-22T10:39:23.455Z,20.00
2023-05-22T10:41:54.180Z,20.10
2023-05-22T10:44:26.694Z,20.10
2023-05-22T10:46:56.996Z,20.40
2023-05-22T10:49:28.705Z,20.40
2023-05-22T11:00:10.608Z,20.60
2023-05-22T11:02:43.699Z,20.80
2023-05-22T11:05:42.516Z,20.30
2023-05-22T11:08:30.893Z,20.30
2023-05-22T11:11:14.360Z,20.50
2023-05-22T11:13:45.057Z,20.60
2023-05-22T11:16:15.396Z,20.70
2023-05-22T11:18:47.230Z,20.70
2023-05-22T11:21:17.647Z,21.30
2023-05-22T11:23:48.983Z,21.40
2023-05-22T11:26:27.847Z,21.70
2023-05-22T11:28:58.536Z,21.90
2023-05-22T11:31:28.972Z,21.60
2023-05-22T11:33:59.138Z,22.00
2023-05-22T11:36:31.940Z,22.00
2023-05-22T11:39:02.708Z,22.20
2023-05-22T11:41:38.943Z,22.40
2023-05-22T11:44:11.741Z,22.60
2023-05-22T11:46:42.761Z,22.60
2023-05-22T11:49:13.448Z,22.50
2023-05-22T11:51:44.488Z,22.30
2023-05-22T11:54:14.782Z,23.30
2023-05-22T11:56:48.147Z,22.80
2023-05-22T11:59:18.330Z,23.00
2023-05-22T12:01:48.499Z,23.30
2023-05-22T12:04:18.890Z,23.10
2023-05-22T12:06:49.292Z,23.00
2023-05-22T12:09:22.547Z,23.30
2023-05-22T12:11:58.738Z,22.70
2023-05-22T12:14:31.821Z,23.50
2023-05-22T12:17:04.566Z,23.50
2023-05-22T12:19:35.311Z,23.00
2023-05-22T12:22:08.143Z,23.30
2023-05-22T12:24:42.111Z,23.20
2023-05-22T12:27:15.884Z,23.40
2023-05-22T12:29:46.624Z,23.10
2023-05-22T12:32:18.458Z,23.00
2023-05-22T12:34:50.572Z,23.10
2023-05-22T12:37:25.466Z,23.20
2023-05-22T12:39:59.809Z,23.30
2023-05-22T12:42:32.601Z,22.70
2023-05-22T12:45:02.859Z,23.50
2023-05-22T12:47:33.100Z,23.50
2023-05-22T12:50:03.279Z,22.80
2023-05-22T12:52:33.436Z,23.00
2023-05-22T13:00:10.170Z,23.00
2023-05-22T13:02:43.604Z,22.70
2023-05-22T13:05:13.983Z,23.20
2023-05-22T13:12:51.915Z,23.00
2023-05-22T13:15:22.092Z,23.00
2023-05-22T13:17:52.342Z,23.00
2023-05-22T13:20:22.674Z,23.20
2023-05-22T13:22:52.864Z,23.30
2023-05-22T13:25:23.008Z,22.80
2023-05-22T13:27:55.947Z,22.80
2023-05-22T13:30:26.085Z,22.90
2023-05-22T13:32:56.263Z,22.90
2023-05-22T13:37:57.495Z,22.30
2023-05-22T13:43:01.218Z,22.50
2023-05-22T13:45:31.459Z,22.60
2023-05-22T13:48:01.775Z,22.80
2023-05-22T13:50:32.326Z,22.80
2023-05-22T13:53:02.217Z,22.90
2023-05-22T13:55:32.386Z,22.80
2023-05-22T13:58:05.333Z,22.50
2023-05-22T14:00:35.472Z,20.90
2023-05-22T14:05:36.291Z,22.40
2023-05-22T14:08:06.728Z,22.50
2023-05-22T14:10:37.334Z,22.40
2023-05-22T14:13:10.153Z,22.50
2023-05-22T14:15:40.475Z,22.30
2023-05-22T14:18:11.471Z,22.50
2023-05-22T14:20:41.690Z,22.40
2023-05-22T14:23:12.048Z,22.50
2023-05-22T14:25:43.282Z,22.30
2023-05-22T14:28:16.642Z,22.50
2023-05-22T14:30:46.847Z,22.40
2023-05-22T14:33:20.320Z,22.30
2023-05-22T14:35:51.852Z,22.30
2023-05-22T14:38:22.377Z,22.30
2023-05-22T14:40:52.283Z,22.20
2023-05-22T14:45:55.422Z,21.90
2023-05-22T14:48:26.991Z,22.30
2023-05-22T14:50:57.218Z,22.20
2023-05-22T14:53:27.455Z,23.30
2023-05-22T14:55:57.572Z,22.20
2023-05-22T14:58:30.464Z,22.10
2023-05-22T15:01:00.629Z,22.30
2023-05-22T15:03:30.801Z,22.20
2023-05-22T15:06:01.069Z,22.20
2023-05-22T15:08:31.422Z,22.20
2023-05-22T15:11:01.603Z,22.20
2023-05-22T15:13:34.360Z,22.00
2023-05-22T15:16:04.523Z,21.80
2023-05-22T15:18:34.767Z,21.90
2023-05-22T15:21:05.123Z,21.80
2023-05-22T15:26:07.038Z,21.80
2023-05-22T15:28:39.906Z,21.70
2023-05-22T15:31:10.078Z,21.80
2023-05-22T15:33:40.419Z,22.20
2023-05-22T15:36:11.222Z,21.90
2023-05-22T15:38:41.487Z,21.90
2023-05-22T15:41:11.639Z,21.60
2023-05-22T15:43:44.852Z,21.60
2023-05-22T15:46:20.144Z,21.70
2023-05-22T15:48:50.932Z,21.90
2023-05-22T15:51:21.154Z,21.60
2023-05-22T15:53:51.457Z,21.20
2023-05-22T15:56:21.739Z,21.60
2023-05-22T15:58:54.585Z,21.70
2023-05-22T16:01:24.826Z,21.50
2023-05-22T16:03:55.024Z,21.80
2023-05-22T16:06:25.504Z,22.20
2023-05-22T16:08:55.745Z,21.90
2023-05-22T16:11:26.231Z,21.80
2023-05-22T16:13:58.870Z,22.00
2023-05-22T16:16:29.160Z,22.10
2023-05-22T16:18:59.440Z,22.20
2023-05-22T16:21:29.700Z,22.10
2023-05-22T16:24:00.479Z,21.40
2023-05-22T16:26:30.595Z,21.20
2023-05-22T16:29:03.449Z,21.70
2023-05-22T16:31:35.716Z,21.70
2023-05-22T16:34:06.518Z,21.80
2023-05-22T16:36:36.793Z,21.80
2023-05-22T16:39:07.156Z,21.70
2023-05-22T16:41:37.333Z,21.60
2023-05-22T16:44:10.158Z,22.20
2023-05-22T16:46:40.365Z,21.50
2023-05-22T16:49:10.632Z,21.50
2023-05-22T16:51:40.786Z,21.60
2023-05-22T16:56:41.445Z,21.50
2023-05-22T16:59:14.375Z,20.30
2023-05-22T17:01:44.825Z,21.70
2023-05-22T17:04:16.064Z,21.70
2023-05-22T17:06:46.330Z,21.70
2023-05-22T17:09:17.129Z,21.80
2023-05-22T17:11:47.316Z,21.70
2023-05-22T17:14:21.905Z,21.70
2023-05-22T17:16:52.372Z,22.10
2023-05-22T17:19:23.328Z,21.80
2023-05-22T17:21:53.551Z,22.00
2023-05-22T17:24:23.748Z,21.70
2023-05-22T17:26:53.889Z,21.90
2023-05-22T17:29:28.216Z,21.90
2023-05-22T17:31:58.558Z,21.80
2023-05-22T17:34:28.811Z,21.70
2023-05-22T17:36:59.555Z,22.40
2023-05-22T17:39:30.899Z,21.80
2023-05-22T17:42:01.165Z,22.00
2023-05-22T17:44:34.042Z,21.70
2023-05-22T17:47:04.187Z,21.90
2023-05-22T17:49:34.401Z,21.70
2023-05-22T17:52:04.600Z,21.70
2023-05-22T17:54:37.318Z,21.90
2023-05-22T17:57:07.580Z,21.60
2023-05-22T17:59:40.618Z,21.80
2023-05-22T18:02:11.496Z,21.70
2023-05-22T18:04:41.895Z,21.90
2023-05-22T18:07:12.078Z,21.60
2023-05-22T18:09:42.275Z,21.60
2023-05-22T18:12:30.292Z,21.60
2023-05-22T18:15:04.769Z,21.40
2023-05-22T18:17:35.057Z,21.30
2023-05-22T18:20:06.622Z,21.30
2023-05-22T18:22:37.285Z,21.30
2023-05-22T18:25:08.251Z,21.20
2023-05-22T18:27:38.727Z,21.50
2023-05-22T18:30:12.722Z,21.60
2023-05-22T18:32:42.938Z,21.30
2023-05-22T18:35:13.256Z,21.10
2023-05-22T18:37:43.400Z,21.10
2023-05-22T18:40:15.544Z,21.50
2023-05-22T18:42:46.246Z,21.30
2023-05-22T18:45:19.114Z,21.00
2023-05-22T18:47:51.559Z,20.80
2023-05-22T18:53:09.398Z,20.60
2023-05-22T18:55:39.621Z,20.60
2023-05-22T18:58:09.781Z,20.20
2023-05-22T19:00:42.883Z,20.50
2023-05-22T19:03:14.322Z,20.40
2023-05-22T19:05:44.516Z,20.30
2023-05-22T19:08:14.672Z,20.00
2023-05-22T19:10:44.924Z,20.10
2023-05-22T19:13:15.076Z,19.80
2023-05-22T19:15:48.072Z,19.70
2023-05-22T19:18:18.551Z,19.70
2023-05-22T19:20:48.704Z,19.40
2023-05-22T19:23:18.984Z,19.60
2023-05-22T19:25:49.298Z,19.50
2023-05-22T19:28:19.543Z,20.10
2023-05-22T19:30:52.375Z,20.00
2023-05-22T19:33:25.648Z,19.80
2023-05-22T19:35:56.036Z,19.40
2023-05-22T19:38:26.383Z,19.10
2023-05-22T19:40:56.613Z,18.80
2023-05-22T19:43:26.934Z,18.70
2023-05-22T19:45:59.835Z,18.60
2023-05-22T19:48:31.636Z,18.40
2023-05-22T19:51:01.914Z,18.50
2023-05-22T19:56:05.218Z,18.50
2023-05-22T22:39:44.296Z,16.40
2023-05-22T22:42:14.558Z,16.40
2023-05-22T22:44:44.679Z,16.40
2023-05-22T22:47:17.566Z,16.40
2023-05-22T22:49:47.738Z,16.50
2023-05-22T22:52:17.998Z,16.50
2023-05-22T22:54:48.270Z,16.50
2023-05-22T22:57:18.467Z,16.50
2023-05-22T22:59:48.635Z,16.50
2023-05-22T23:02:21.528Z,16.60
2023-05-22T23:04:51.976Z,16.50
2023-05-22T23:09:54.732Z,16.60
2023-05-22T23:12:24.958Z,16.40
2023-05-22T23:14:55.682Z,16.50
2023-05-22T23:17:28.446Z,16.40
2023-05-22T23:19:58.581Z,16.50
2023-05-22T23:22:28.775Z,16.60
2023-05-22T23:24:58.898Z,16.60
2023-05-22T23:29:59.779Z,16.60
2023-05-22T23:32:32.571Z,16.20
2023-05-22T23:35:02.804Z,16.50
2023-05-22T23:37:32.928Z,16.50
2023-05-22T23:40:03.100Z,16.40
2023-05-22T23:42:35.593Z,16.50
2023-05-22T23:45:06.878Z,16.50
2023-05-22T23:47:39.683Z,16.40
2023-05-22T23:50:11.082Z,16.40
2023-05-22T23:52:41.299Z,16.50
2023-05-22T23:55:12.533Z,16.40
2023-05-22T23:57:42.703Z,16.50
